sensor_id;sensor_type;location;lat;lon;timestamp;P1;durP1;ratioP1;P2;durP2;ratioP2
48629;SDS011;34426;52.180;4.462;2022-12-11T00:01:33;77.68;;;50.47;;
48629;SDS011;34426;52.180;4.462;2022-12-11T00:04:00;76.82;;;50.70;;
48629;SDS011;34426;52.180;4.462;2022-12-11T00:06:27;72.15;;;49.03;;
48629;SDS011;34426;52.180;4.462;2022-12-11T00:08:56;74.57;;;49.17;;
48629;SDS011;34426;52.180;4.462;2022-12-11T00:11:24;71.45;;;48.72;;
48629;SDS011;34426;52.180;4.462;2022-12-11T00:13:51;72.63;;;50.13;;
48629;SDS011;34426;52.180;4.462;2022-12-11T00:16:20;71.30;;;49.55;;
48629;SDS011;34426;52.180;4.462;2022-12-11T00:18:47;72.05;;;50.17;;
48629;SDS011;34426;52.180;4.462;2022-12-11T00:21:14;73.55;;;48.42;;
48629;SDS011;34426;52.180;4.462;2022-12-11T00:23:42;68.47;;;49.13;;
48629;SDS011;34426;52.180;4.462;2022-12-11T00:26:10;69.47;;;48.85;;
48629;SDS011;34426;52.180;4.462;2022-12-11T00:28:39;65.35;;;47.53;;
48629;SDS011;34426;52.180;4.462;2022-12-11T00:31:07;71.95;;;48.85;;
48629;SDS011;34426;52.180;4.462;2022-12-11T00:33:39;69.55;;;49.25;;
48629;SDS011;34426;52.180;4.462;2022-12-11T00:36:10;73.32;;;48.35;;
48629;SDS011;34426;52.180;4.462;2022-12-11T00:38:39;72.63;;;49.87;;
48629;SDS011;34426;52.180;4.462;2022-12-11T00:41:06;71.40;;;50.10;;
48629;SDS011;34426;52.180;4.462;2022-12-11T00:43:34;70.70;;;49.13;;
48629;SDS011;34426;52.180;4.462;2022-12-11T00:46:02;70.15;;;50.10;;
48629;SDS011;34426;52.180;4.462;2022-12-11T00:48:30;69.82;;;50.08;;
48629;SDS011;34426;52.180;4.462;2022-12-11T00:50:59;80.32;;;53.35;;
48629;SDS011;34426;52.180;4.462;2022-12-11T00:53:27;73.03;;;50.17;;
48629;SDS011;34426;52.180;4.462;2022-12-11T00:55:54;67.03;;;47.70;;
48629;SDS011;34426;52.180;4.462;2022-12-11T00:58:22;58.72;;;45.13;;
48629;SDS011;34426;52.180;4.462;2022-12-11T01:00:49;62.20;;;44.47;;
48629;SDS011;34426;52.180;4.462;2022-12-11T01:03:16;60.58;;;44.45;;
48629;SDS011;34426;52.180;4.462;2022-12-11T01:05:50;58.90;;;41.97;;
48629;SDS011;34426;52.180;4.462;2022-12-11T01:08:19;53.00;;;40.63;;
48629;SDS011;34426;52.180;4.462;2022-12-11T01:10:47;53.53;;;40.08;;
48629;SDS011;34426;52.180;4.462;2022-12-11T01:13:14;49.33;;;38.15;;
48629;SDS011;34426;52.180;4.462;2022-12-11T01:15:42;52.65;;;39.60;;
48629;SDS011;34426;52.180;4.462;2022-12-11T01:18:11;48.95;;;38.17;;
48629;SDS011;34426;52.180;4.462;2022-12-11T01:20:39;48.53;;;39.63;;
48629;SDS011;34426;52.180;4.462;2022-12-11T01:23:09;48.55;;;38.63;;
48629;SDS011;34426;52.180;4.462;2022-12-11T01:25:39;45.55;;;36.42;;
48629;SDS011;34426;52.180;4.462;2022-12-11T01:28:07;46.78;;;36.58;;
48629;SDS011;34426;52.180;4.462;2022-12-11T01:30:35;44.22;;;35.58;;
48629;SDS011;34426;52.180;4.462;2022-12-11T01:33:02;41.22;;;34.20;;
48629;SDS011;34426;52.180;4.462;2022-12-11T01:35:29;38.08;;;31.90;;
48629;SDS011;34426;52.180;4.462;2022-12-11T01:37:57;42.50;;;33.13;;
48629;SDS011;34426;52.180;4.462;2022-12-11T01:40:25;37.00;;;30.10;;
48629;SDS011;34426;52.180;4.462;2022-12-11T01:42:54;34.92;;;29.15;;
48629;SDS011;34426;52.180;4.462;2022-12-11T01:45:31;42.88;;;28.52;;
48629;SDS011;34426;52.180;4.462;2022-12-11T01:48:05;33.25;;;28.55;;
48629;SDS011;34426;52.180;4.462;2022-12-11T01:50:35;36.85;;;28.80;;
48629;SDS011;34426;52.180;4.462;2022-12-11T01:53:07;40.28;;;29.92;;
48629;SDS011;34426;52.180;4.462;2022-12-11T01:55:38;35.83;;;28.87;;
48629;SDS011;34426;52.180;4.462;2022-12-11T01:58:08;38.97;;;30.63;;
48629;SDS011;34426;52.180;4.462;2022-12-11T02:00:37;41.33;;;33.30;;
48629;SDS011;34426;52.180;4.462;2022-12-11T02:03:04;42.35;;;34.10;;
48629;SDS011;34426;52.180;4.462;2022-12-11T02:05:31;39.75;;;32.55;;
48629;SDS011;34426;52.180;4.462;2022-12-11T02:07:58;39.50;;;32.65;;
48629;SDS011;34426;52.180;4.462;2022-12-11T02:10:29;39.13;;;31.42;;
48629;SDS011;34426;52.180;4.462;2022-12-11T02:13:10;35.38;;;28.23;;
48629;SDS011;34426;52.180;4.462;2022-12-11T02:15:43;32.03;;;27.02;;
48629;SDS011;34426;52.180;4.462;2022-12-11T02:18:15;28.20;;;23.60;;
48629;SDS011;34426;52.180;4.462;2022-12-11T02:20:52;26.10;;;21.92;;
48629;SDS011;34426;52.180;4.462;2022-12-11T02:23:32;27.83;;;23.83;;
48629;SDS011;34426;52.180;4.462;2022-12-11T02:26:29;28.60;;;24.08;;
48629;SDS011;34426;52.180;4.462;2022-12-11T02:29:18;28.90;;;23.00;;
48629;SDS011;34426;52.180;4.462;2022-12-11T02:31:52;28.45;;;23.30;;
48629;SDS011;34426;52.180;4.462;2022-12-11T02:34:24;28.73;;;22.48;;
48629;SDS011;34426;52.180;4.462;2022-12-11T02:37:01;28.27;;;22.77;;
48629;SDS011;34426;52.180;4.462;2022-12-11T02:39:34;28.92;;;23.17;;
48629;SDS011;34426;52.180;4.462;2022-12-11T02:42:05;27.92;;;23.08;;
48629;SDS011;34426;52.180;4.462;2022-12-11T02:44:36;29.60;;;22.83;;
48629;SDS011;34426;52.180;4.462;2022-12-11T02:47:05;25.50;;;20.75;;
48629;SDS011;34426;52.180;4.462;2022-12-11T02:49:36;32.22;;;24.35;;
48629;SDS011;34426;52.180;4.462;2022-12-11T02:52:07;38.55;;;29.55;;
48629;SDS011;34426;52.180;4.462;2022-12-11T02:54:37;39.35;;;30.90;;
48629;SDS011;34426;52.180;4.462;2022-12-11T02:57:08;47.10;;;33.85;;
48629;SDS011;34426;52.180;4.462;2022-12-11T02:59:41;46.70;;;35.42;;
48629;SDS011;34426;52.180;4.462;2022-12-11T03:02:10;49.17;;;36.65;;
48629;SDS011;34426;52.180;4.462;2022-12-11T03:04:39;50.20;;;38.70;;
48629;SDS011;34426;52.180;4.462;2022-12-11T03:07:07;53.05;;;38.95;;
48629;SDS011;34426;52.180;4.462;2022-12-11T03:09:40;53.10;;;38.80;;
48629;SDS011;34426;52.180;4.462;2022-12-11T03:12:09;56.00;;;40.70;;
48629;SDS011;34426;52.180;4.462;2022-12-11T03:14:40;56.70;;;40.83;;
48629;SDS011;34426;52.180;4.462;2022-12-11T03:17:10;64.85;;;42.97;;
48629;SDS011;34426;52.180;4.462;2022-12-11T03:19:43;55.92;;;41.60;;
48629;SDS011;34426;52.180;4.462;2022-12-11T03:22:19;65.65;;;45.00;;
48629;SDS011;34426;52.180;4.462;2022-12-11T03:24:50;60.92;;;44.38;;
48629;SDS011;34426;52.180;4.462;2022-12-11T03:27:24;64.25;;;45.65;;
48629;SDS011;34426;52.180;4.462;2022-12-11T03:29:57;64.47;;;44.58;;
48629;SDS011;34426;52.180;4.462;2022-12-11T03:32:28;62.28;;;44.30;;
48629;SDS011;34426;52.180;4.462;2022-12-11T03:35:02;65.80;;;41.60;;
48629;SDS011;34426;52.180;4.462;2022-12-11T03:37:33;56.10;;;41.25;;
48629;SDS011;34426;52.180;4.462;2022-12-11T03:40:05;65.18;;;43.35;;
48629;SDS011;34426;52.180;4.462;2022-12-11T03:42:35;62.50;;;42.35;;
48629;SDS011;34426;52.180;4.462;2022-12-11T03:45:08;66.65;;;41.60;;
48629;SDS011;34426;52.180;4.462;2022-12-11T03:47:38;64.80;;;41.50;;
48629;SDS011;34426;52.180;4.462;2022-12-11T03:50:08;61.72;;;41.47;;
48629;SDS011;34426;52.180;4.462;2022-12-11T03:52:37;61.75;;;40.17;;
48629;SDS011;34426;52.180;4.462;2022-12-11T03:55:07;61.35;;;41.13;;
48629;SDS011;34426;52.180;4.462;2022-12-11T03:57:37;59.83;;;39.58;;
48629;SDS011;34426;52.180;4.462;2022-12-11T04:00:04;58.85;;;38.42;;
48629;SDS011;34426;52.180;4.462;2022-12-11T04:02:34;58.65;;;39.47;;
48629;SDS011;34426;52.180;4.462;2022-12-11T04:05:02;63.03;;;40.63;;
48629;SDS011;34426;52.180;4.462;2022-12-11T04:07:30;56.38;;;39.25;;
48629;SDS011;34426;52.180;4.462;2022-12-11T04:09:57;62.45;;;40.15;;
48629;SDS011;34426;52.180;4.462;2022-12-11T04:12:24;60.65;;;39.92;;
48629;SDS011;34426;52.180;4.462;2022-12-11T04:14:52;66.88;;;42.00;;
48629;SDS011;34426;52.180;4.462;2022-12-11T04:17:19;66.85;;;41.15;;
48629;SDS011;34426;52.180;4.462;2022-12-11T04:19:49;63.70;;;42.08;;
48629;SDS011;34426;52.180;4.462;2022-12-11T04:22:16;66.05;;;42.17;;
48629;SDS011;34426;52.180;4.462;2022-12-11T04:24:45;65.13;;;41.67;;
48629;SDS011;34426;52.180;4.462;2022-12-11T04:27:13;62.28;;;42.03;;
48629;SDS011;34426;52.180;4.462;2022-12-11T04:29:41;66.55;;;40.97;;
48629;SDS011;34426;52.180;4.462;2022-12-11T04:32:08;62.28;;;39.10;;
48629;SDS011;34426;52.180;4.462;2022-12-11T04:34:35;68.55;;;39.50;;
48629;SDS011;34426;52.180;4.462;2022-12-11T04:37:05;58.88;;;39.00;;
48629;SDS011;34426;52.180;4.462;2022-12-11T04:39:32;55.42;;;38.03;;
48629;SDS011;34426;52.180;4.462;2022-12-11T04:41:59;58.47;;;38.95;;
48629;SDS011;34426;52.180;4.462;2022-12-11T04:44:26;59.17;;;38.50;;
48629;SDS011;34426;52.180;4.462;2022-12-11T04:46:54;52.42;;;35.28;;
48629;SDS011;34426;52.180;4.462;2022-12-11T04:49:21;51.50;;;32.45;;
48629;SDS011;34426;52.180;4.462;2022-12-11T04:51:48;47.92;;;33.78;;
48629;SDS011;34426;52.180;4.462;2022-12-11T04:54:18;49.67;;;32.22;;
48629;SDS011;34426;52.180;4.462;2022-12-11T04:56:45;46.28;;;30.80;;
48629;SDS011;34426;52.180;4.462;2022-12-11T04:59:13;52.40;;;32.55;;
48629;SDS011;34426;52.180;4.462;2022-12-11T05:01:40;45.45;;;30.95;;
48629;SDS011;34426;52.180;4.462;2022-12-11T05:04:08;42.60;;;29.30;;
48629;SDS011;34426;52.180;4.462;2022-12-11T05:06:35;44.50;;;30.98;;
48629;SDS011;34426;52.180;4.462;2022-12-11T05:09:02;43.53;;;30.00;;
48629;SDS011;34426;52.180;4.462;2022-12-11T05:11:31;44.15;;;29.77;;
48629;SDS011;34426;52.180;4.462;2022-12-11T05:13:58;41.67;;;28.90;;
48629;SDS011;34426;52.180;4.462;2022-12-11T05:16:26;43.58;;;28.15;;
48629;SDS011;34426;52.180;4.462;2022-12-11T05:18:53;42.55;;;27.38;;
48629;SDS011;34426;52.180;4.462;2022-12-11T05:21:21;38.78;;;27.35;;
48629;SDS011;34426;52.180;4.462;2022-12-11T05:23:48;40.30;;;28.50;;
48629;SDS011;34426;52.180;4.462;2022-12-11T05:26:16;42.63;;;28.23;;
48629;SDS011;34426;52.180;4.462;2022-12-11T05:28:49;40.92;;;27.65;;
48629;SDS011;34426;52.180;4.462;2022-12-11T05:31:18;37.65;;;27.27;;
48629;SDS011;34426;52.180;4.462;2022-12-11T05:33:47;46.42;;;28.30;;
48629;SDS011;34426;52.180;4.462;2022-12-11T05:36:15;41.53;;;27.95;;
48629;SDS011;34426;52.180;4.462;2022-12-11T05:38:44;39.40;;;28.33;;
48629;SDS011;34426;52.180;4.462;2022-12-11T05:41:12;42.83;;;29.25;;
48629;SDS011;34426;52.180;4.462;2022-12-11T05:43:41;44.70;;;30.02;;
48629;SDS011;34426;52.180;4.462;2022-12-11T05:46:11;43.75;;;28.60;;
48629;SDS011;34426;52.180;4.462;2022-12-11T05:48:39;39.47;;;28.35;;
48629;SDS011;34426;52.180;4.462;2022-12-11T05:51:07;47.17;;;30.25;;
48629;SDS011;34426;52.180;4.462;2022-12-11T05:53:36;48.50;;;29.63;;
48629;SDS011;34426;52.180;4.462;2022-12-11T05:56:05;40.97;;;28.05;;
48629;SDS011;34426;52.180;4.462;2022-12-11T05:58:33;40.33;;;29.90;;
48629;SDS011;34426;52.180;4.462;2022-12-11T06:01:01;43.42;;;28.92;;
48629;SDS011;34426;52.180;4.462;2022-12-11T06:03:34;42.72;;;28.88;;
48629;SDS011;34426;52.180;4.462;2022-12-11T06:06:01;42.75;;;29.02;;
48629;SDS011;34426;52.180;4.462;2022-12-11T06:08:28;39.17;;;28.52;;
48629;SDS011;34426;52.180;4.462;2022-12-11T06:10:56;42.08;;;28.65;;
48629;SDS011;34426;52.180;4.462;2022-12-11T06:13:23;42.83;;;30.30;;
48629;SDS011;34426;52.180;4.462;2022-12-11T06:15:50;44.63;;;29.73;;
48629;SDS011;34426;52.180;4.462;2022-12-11T06:18:18;43.28;;;29.55;;
48629;SDS011;34426;52.180;4.462;2022-12-11T06:20:47;41.00;;;28.48;;
48629;SDS011;34426;52.180;4.462;2022-12-11T06:23:15;45.60;;;28.33;;
48629;SDS011;34426;52.180;4.462;2022-12-11T06:25:42;40.72;;;26.80;;
48629;SDS011;34426;52.180;4.462;2022-12-11T06:28:09;40.00;;;28.05;;
48629;SDS011;34426;52.180;4.462;2022-12-11T06:30:36;41.85;;;28.80;;
48629;SDS011;34426;52.180;4.462;2022-12-11T06:33:04;37.75;;;27.65;;
48629;SDS011;34426;52.180;4.462;2022-12-11T06:35:32;36.13;;;26.90;;
48629;SDS011;34426;52.180;4.462;2022-12-11T06:38:01;40.58;;;27.25;;
48629;SDS011;34426;52.180;4.462;2022-12-11T06:40:28;38.35;;;28.08;;
48629;SDS011;34426;52.180;4.462;2022-12-11T06:42:55;38.05;;;26.80;;
48629;SDS011;34426;52.180;4.462;2022-12-11T06:45:23;34.75;;;25.95;;
48629;SDS011;34426;52.180;4.462;2022-12-11T06:47:50;37.85;;;27.73;;
48629;SDS011;34426;52.180;4.462;2022-12-11T06:50:18;39.33;;;26.98;;
48629;SDS011;34426;52.180;4.462;2022-12-11T06:52:45;36.22;;;27.08;;
48629;SDS011;34426;52.180;4.462;2022-12-11T06:55:14;40.25;;;27.77;;
48629;SDS011;34426;52.180;4.462;2022-12-11T06:57:41;37.85;;;26.75;;
48629;SDS011;34426;52.180;4.462;2022-12-11T07:00:10;37.70;;;27.35;;
48629;SDS011;34426;52.180;4.462;2022-12-11T07:02:38;42.42;;;27.55;;
48629;SDS011;34426;52.180;4.462;2022-12-11T07:05:06;39.28;;;28.33;;
48629;SDS011;34426;52.180;4.462;2022-12-11T07:07:34;43.88;;;29.70;;
48629;SDS011;34426;52.180;4.462;2022-12-11T07:10:01;44.75;;;29.13;;
48629;SDS011;34426;52.180;4.462;2022-12-11T07:12:30;41.65;;;28.15;;
48629;SDS011;34426;52.180;4.462;2022-12-11T07:14:57;41.63;;;27.98;;
48629;SDS011;34426;52.180;4.462;2022-12-11T07:17:25;41.08;;;27.60;;
48629;SDS011;34426;52.180;4.462;2022-12-11T07:19:53;41.75;;;28.35;;
48629;SDS011;34426;52.180;4.462;2022-12-11T07:22:20;47.03;;;29.15;;
48629;SDS011;34426;52.180;4.462;2022-12-11T07:24:48;45.33;;;27.80;;
48629;SDS011;34426;52.180;4.462;2022-12-11T07:27:18;49.22;;;29.58;;
48629;SDS011;34426;52.180;4.462;2022-12-11T07:29:48;42.25;;;29.52;;
48629;SDS011;34426;52.180;4.462;2022-12-11T07:32:16;43.78;;;29.83;;
48629;SDS011;34426;52.180;4.462;2022-12-11T07:34:43;44.13;;;29.05;;
48629;SDS011;34426;52.180;4.462;2022-12-11T07:37:11;43.90;;;28.90;;
48629;SDS011;34426;52.180;4.462;2022-12-11T07:39:38;44.08;;;29.70;;
48629;SDS011;34426;52.180;4.462;2022-12-11T07:42:06;46.00;;;29.50;;
48629;SDS011;34426;52.180;4.462;2022-12-11T07:44:33;46.83;;;30.50;;
48629;SDS011;34426;52.180;4.462;2022-12-11T07:47:02;44.95;;;30.33;;
48629;SDS011;34426;52.180;4.462;2022-12-11T07:49:30;47.50;;;30.23;;
48629;SDS011;34426;52.180;4.462;2022-12-11T07:51:57;47.75;;;29.45;;
48629;SDS011;34426;52.180;4.462;2022-12-11T07:54:24;47.78;;;30.40;;
48629;SDS011;34426;52.180;4.462;2022-12-11T07:56:51;49.83;;;30.90;;
48629;SDS011;34426;52.180;4.462;2022-12-11T07:59:19;46.40;;;30.15;;
48629;SDS011;34426;52.180;4.462;2022-12-11T08:01:46;53.72;;;30.33;;
48629;SDS011;34426;52.180;4.462;2022-12-11T08:04:15;47.50;;;30.92;;
48629;SDS011;34426;52.180;4.462;2022-12-11T08:06:44;50.55;;;31.45;;
48629;SDS011;34426;52.180;4.462;2022-12-11T08:09:11;53.25;;;31.58;;
48629;SDS011;34426;52.180;4.462;2022-12-11T08:11:39;50.03;;;30.50;;
48629;SDS011;34426;52.180;4.462;2022-12-11T08:14:06;49.42;;;30.40;;
48629;SDS011;34426;52.180;4.462;2022-12-11T08:16:34;53.20;;;32.05;;
48629;SDS011;34426;52.180;4.462;2022-12-11T08:19:01;48.85;;;30.80;;
48629;SDS011;34426;52.180;4.462;2022-12-11T08:21:30;51.60;;;30.23;;
48629;SDS011;34426;52.180;4.462;2022-12-11T08:23:58;46.60;;;30.77;;
48629;SDS011;34426;52.180;4.462;2022-12-11T08:26:25;46.35;;;31.08;;
48629;SDS011;34426;52.180;4.462;2022-12-11T08:28:54;48.70;;;31.10;;
48629;SDS011;34426;52.180;4.462;2022-12-11T08:31:23;46.10;;;30.73;;
48629;SDS011;34426;52.180;4.462;2022-12-11T08:33:50;52.95;;;31.20;;
48629;SDS011;34426;52.180;4.462;2022-12-11T08:36:20;45.35;;;29.52;;
48629;SDS011;34426;52.180;4.462;2022-12-11T08:38:50;46.05;;;31.15;;
48629;SDS011;34426;52.180;4.462;2022-12-11T08:41:19;53.95;;;32.25;;
48629;SDS011;34426;52.180;4.462;2022-12-11T08:43:47;48.35;;;31.70;;
48629;SDS011;34426;52.180;4.462;2022-12-11T08:46:15;48.00;;;31.05;;
48629;SDS011;34426;52.180;4.462;2022-12-11T08:48:42;49.83;;;30.38;;
48629;SDS011;34426;52.180;4.462;2022-12-11T08:51:11;46.83;;;30.13;;
48629;SDS011;34426;52.180;4.462;2022-12-11T08:53:46;47.83;;;31.13;;
48629;SDS011;34426;52.180;4.462;2022-12-11T08:56:15;44.67;;;28.30;;
48629;SDS011;34426;52.180;4.462;2022-12-11T08:58:45;44.85;;;29.88;;
48629;SDS011;34426;52.180;4.462;2022-12-11T09:01:13;42.38;;;27.85;;
48629;SDS011;34426;52.180;4.462;2022-12-11T09:03:42;44.08;;;29.60;;
48629;SDS011;34426;52.180;4.462;2022-12-11T09:06:13;41.28;;;28.13;;
48629;SDS011;34426;52.180;4.462;2022-12-11T09:08:41;40.45;;;27.27;;
48629;SDS011;34426;52.180;4.462;2022-12-11T09:11:10;54.50;;;29.42;;
48629;SDS011;34426;52.180;4.462;2022-12-11T09:13:40;43.63;;;28.02;;
48629;SDS011;34426;52.180;4.462;2022-12-11T09:16:09;41.45;;;27.38;;
48629;SDS011;34426;52.180;4.462;2022-12-11T09:18:37;42.67;;;27.83;;
48629;SDS011;34426;52.180;4.462;2022-12-11T09:21:05;39.28;;;25.42;;
48629;SDS011;34426;52.180;4.462;2022-12-11T09:23:33;38.80;;;26.00;;
48629;SDS011;34426;52.180;4.462;2022-12-11T09:26:02;37.63;;;26.55;;
48629;SDS011;34426;52.180;4.462;2022-12-11T09:28:30;36.00;;;26.55;;
48629;SDS011;34426;52.180;4.462;2022-12-11T09:30:59;39.22;;;27.33;;
48629;SDS011;34426;52.180;4.462;2022-12-11T09:33:27;39.92;;;27.17;;
48629;SDS011;34426;52.180;4.462;2022-12-11T09:35:57;36.88;;;25.65;;
48629;SDS011;34426;52.180;4.462;2022-12-11T09:38:25;40.30;;;26.05;;
48629;SDS011;34426;52.180;4.462;2022-12-11T09:40:52;40.45;;;25.67;;
48629;SDS011;34426;52.180;4.462;2022-12-11T09:43:24;36.65;;;26.08;;
48629;SDS011;34426;52.180;4.462;2022-12-11T09:46:04;36.38;;;25.83;;
48629;SDS011;34426;52.180;4.462;2022-12-11T09:48:35;36.97;;;26.15;;
48629;SDS011;34426;52.180;4.462;2022-12-11T09:51:06;38.55;;;25.38;;
48629;SDS011;34426;52.180;4.462;2022-12-11T09:53:40;38.95;;;25.45;;
48629;SDS011;34426;52.180;4.462;2022-12-11T09:56:11;38.60;;;25.88;;
48629;SDS011;34426;52.180;4.462;2022-12-11T09:58:46;37.13;;;24.63;;
48629;SDS011;34426;52.180;4.462;2022-12-11T10:01:25;39.85;;;25.90;;
48629;SDS011;34426;52.180;4.462;2022-12-11T10:04:06;39.08;;;26.23;;
48629;SDS011;34426;52.180;4.462;2022-12-11T10:07:00;33.78;;;25.33;;
48629;SDS011;34426;52.180;4.462;2022-12-11T10:09:33;34.40;;;25.30;;
48629;SDS011;34426;52.180;4.462;2022-12-11T10:12:12;37.95;;;25.75;;
48629;SDS011;34426;52.180;4.462;2022-12-11T10:14:56;44.42;;;26.80;;
48629;SDS011;34426;52.180;4.462;2022-12-11T10:17:38;40.15;;;27.58;;
48629;SDS011;34426;52.180;4.462;2022-12-11T10:20:14;40.90;;;27.75;;
48629;SDS011;34426;52.180;4.462;2022-12-11T10:22:47;36.13;;;26.65;;
48629;SDS011;34426;52.180;4.462;2022-12-11T10:25:18;42.05;;;28.23;;
48629;SDS011;34426;52.180;4.462;2022-12-11T10:27:47;44.38;;;28.95;;
48629;SDS011;34426;52.180;4.462;2022-12-11T10:30:15;38.17;;;27.58;;
48629;SDS011;34426;52.180;4.462;2022-12-11T10:32:47;42.40;;;28.40;;
48629;SDS011;34426;52.180;4.462;2022-12-11T10:35:19;45.97;;;31.85;;
48629;SDS011;34426;52.180;4.462;2022-12-11T10:37:54;43.42;;;30.52;;
48629;SDS011;34426;52.180;4.462;2022-12-11T10:40:27;43.10;;;29.65;;
48629;SDS011;34426;52.180;4.462;2022-12-11T10:42:56;45.10;;;29.88;;
48629;SDS011;34426;52.180;4.462;2022-12-11T10:45:23;47.83;;;29.95;;
48629;SDS011;34426;52.180;4.462;2022-12-11T10:48:02;44.40;;;29.65;;
48629;SDS011;34426;52.180;4.462;2022-12-11T10:50:31;44.40;;;30.58;;
48629;SDS011;34426;52.180;4.462;2022-12-11T10:52:59;43.80;;;30.35;;
48629;SDS011;34426;52.180;4.462;2022-12-11T10:55:27;42.15;;;28.90;;
48629;SDS011;34426;52.180;4.462;2022-12-11T10:58:02;44.05;;;29.17;;
48629;SDS011;34426;52.180;4.462;2022-12-11T11:00:33;49.42;;;29.75;;
48629;SDS011;34426;52.180;4.462;2022-12-11T11:03:03;42.45;;;29.52;;
48629;SDS011;34426;52.180;4.462;2022-12-11T11:08:12;41.08;;;27.38;;
48629;SDS011;34426;52.180;4.462;2022-12-11T11:10:53;43.67;;;28.95;;
48629;SDS011;34426;52.180;4.462;2022-12-11T11:13:21;48.75;;;30.25;;
48629;SDS011;34426;52.180;4.462;2022-12-11T11:15:49;42.80;;;30.45;;
48629;SDS011;34426;52.180;4.462;2022-12-11T11:18:27;42.30;;;30.30;;
48629;SDS011;34426;52.180;4.462;2022-12-11T11:20:55;47.17;;;30.95;;
48629;SDS011;34426;52.180;4.462;2022-12-11T11:23:23;46.85;;;30.00;;
48629;SDS011;34426;52.180;4.462;2022-12-11T11:25:52;43.53;;;30.80;;
48629;SDS011;34426;52.180;4.462;2022-12-11T11:28:21;46.20;;;31.02;;
48629;SDS011;34426;52.180;4.462;2022-12-11T11:30:54;47.35;;;30.52;;
48629;SDS011;34426;52.180;4.462;2022-12-11T11:33:23;48.53;;;30.13;;
48629;SDS011;34426;52.180;4.462;2022-12-11T11:35:54;46.72;;;31.10;;
48629;SDS011;34426;52.180;4.462;2022-12-11T11:38:24;45.30;;;30.10;;
48629;SDS011;34426;52.180;4.462;2022-12-11T11:43:27;40.20;;;28.35;;
48629;SDS011;34426;52.180;4.462;2022-12-11T11:46:03;45.03;;;29.48;;
48629;SDS011;34426;52.180;4.462;2022-12-11T11:48:42;39.17;;;27.67;;
48629;SDS011;34426;52.180;4.462;2022-12-11T11:51:15;38.30;;;27.85;;
48629;SDS011;34426;52.180;4.462;2022-12-11T11:53:48;40.67;;;28.05;;
48629;SDS011;34426;52.180;4.462;2022-12-11T11:56:19;50.28;;;28.38;;
48629;SDS011;34426;52.180;4.462;2022-12-11T11:58:50;40.28;;;28.02;;
48629;SDS011;34426;52.180;4.462;2022-12-11T12:01:28;41.78;;;28.50;;
48629;SDS011;34426;52.180;4.462;2022-12-11T12:03:57;41.25;;;28.67;;
48629;SDS011;34426;52.180;4.462;2022-12-11T12:06:28;41.72;;;28.33;;
48629;SDS011;34426;52.180;4.462;2022-12-11T12:09:03;41.17;;;28.50;;
48629;SDS011;34426;52.180;4.462;2022-12-11T12:11:43;41.50;;;28.58;;
48629;SDS011;34426;52.180;4.462;2022-12-11T12:14:15;41.37;;;26.97;;
48629;SDS011;34426;52.180;4.462;2022-12-11T12:16:48;38.72;;;27.27;;
48629;SDS011;34426;52.180;4.462;2022-12-11T12:19:42;40.83;;;27.80;;
48629;SDS011;34426;52.180;4.462;2022-12-11T12:22:18;43.92;;;28.30;;
48629;SDS011;34426;52.180;4.462;2022-12-11T12:24:59;38.47;;;27.65;;
48629;SDS011;34426;52.180;4.462;2022-12-11T12:27:39;36.95;;;25.92;;
48629;SDS011;34426;52.180;4.462;2022-12-11T12:30:11;38.83;;;26.20;;
48629;SDS011;34426;52.180;4.462;2022-12-11T12:32:43;40.22;;;25.98;;
48629;SDS011;34426;52.180;4.462;2022-12-11T12:35:26;40.63;;;26.70;;
48629;SDS011;34426;52.180;4.462;2022-12-11T12:38:01;36.53;;;26.08;;
48629;SDS011;34426;52.180;4.462;2022-12-11T12:40:43;39.47;;;27.55;;
48629;SDS011;34426;52.180;4.462;2022-12-11T12:43:30;45.25;;;28.50;;
48629;SDS011;34426;52.180;4.462;2022-12-11T12:46:20;43.63;;;27.73;;
48629;SDS011;34426;52.180;4.462;2022-12-11T12:48:55;42.90;;;27.00;;
48629;SDS011;34426;52.180;4.462;2022-12-11T12:51:26;41.65;;;28.30;;
48629;SDS011;34426;52.180;4.462;2022-12-11T12:53:56;41.70;;;27.65;;
48629;SDS011;34426;52.180;4.462;2022-12-11T12:56:26;41.47;;;28.10;;
48629;SDS011;34426;52.180;4.462;2022-12-11T12:58:56;44.03;;;28.50;;
48629;SDS011;34426;52.180;4.462;2022-12-11T13:01:24;41.83;;;28.02;;
48629;SDS011;34426;52.180;4.462;2022-12-11T13:03:54;37.05;;;25.23;;
48629;SDS011;34426;52.180;4.462;2022-12-11T13:06:31;48.53;;;26.25;;
48629;SDS011;34426;52.180;4.462;2022-12-11T13:09:12;37.30;;;25.33;;
48629;SDS011;34426;52.180;4.462;2022-12-11T13:11:42;37.28;;;26.85;;
48629;SDS011;34426;52.180;4.462;2022-12-11T13:14:21;36.25;;;25.13;;
48629;SDS011;34426;52.180;4.462;2022-12-11T13:16:51;40.72;;;24.38;;
48629;SDS011;34426;52.180;4.462;2022-12-11T13:19:29;35.95;;;24.15;;
48629;SDS011;34426;52.180;4.462;2022-12-11T13:22:03;40.47;;;25.85;;
48629;SDS011;34426;52.180;4.462;2022-12-11T13:24:45;48.20;;;28.33;;
48629;SDS011;34426;52.180;4.462;2022-12-11T13:27:22;52.25;;;30.13;;
48629;SDS011;34426;52.180;4.462;2022-12-11T13:29:50;51.72;;;27.20;;
48629;SDS011;34426;52.180;4.462;2022-12-11T13:32:28;41.42;;;25.60;;
48629;SDS011;34426;52.180;4.462;2022-12-11T13:34:57;33.47;;;21.98;;
48629;SDS011;34426;52.180;4.462;2022-12-11T13:37:31;37.20;;;21.73;;
48629;SDS011;34426;52.180;4.462;2022-12-11T13:40:00;36.75;;;22.05;;
48629;SDS011;34426;52.180;4.462;2022-12-11T13:42:32;31.90;;;22.63;;
48629;SDS011;34426;52.180;4.462;2022-12-11T13:45:03;31.65;;;21.85;;
48629;SDS011;34426;52.180;4.462;2022-12-11T13:47:31;31.23;;;20.55;;
48629;SDS011;34426;52.180;4.462;2022-12-11T13:50:03;32.00;;;21.15;;
48629;SDS011;34426;52.180;4.462;2022-12-11T13:52:51;34.33;;;23.67;;
48629;SDS011;34426;52.180;4.462;2022-12-11T13:55:21;39.53;;;25.80;;
48629;SDS011;34426;52.180;4.462;2022-12-11T13:57:50;38.88;;;26.75;;
48629;SDS011;34426;52.180;4.462;2022-12-11T14:00:19;47.88;;;28.77;;
48629;SDS011;34426;52.180;4.462;2022-12-11T14:02:48;39.25;;;26.60;;
48629;SDS011;34426;52.180;4.462;2022-12-11T14:05:16;41.70;;;28.77;;
48629;SDS011;34426;52.180;4.462;2022-12-11T14:07:47;43.25;;;29.83;;
48629;SDS011;34426;52.180;4.462;2022-12-11T14:10:17;44.85;;;30.45;;
48629;SDS011;34426;52.180;4.462;2022-12-11T14:12:48;47.42;;;31.42;;
48629;SDS011;34426;52.180;4.462;2022-12-11T14:15:19;44.47;;;31.02;;
48629;SDS011;34426;52.180;4.462;2022-12-11T14:17:47;47.08;;;30.90;;
48629;SDS011;34426;52.180;4.462;2022-12-11T14:20:15;45.42;;;31.67;;
48629;SDS011;34426;52.180;4.462;2022-12-11T14:22:45;48.53;;;32.08;;
48629;SDS011;34426;52.180;4.462;2022-12-11T14:25:19;43.15;;;31.27;;
48629;SDS011;34426;52.180;4.462;2022-12-11T14:27:48;46.53;;;32.33;;
48629;SDS011;34426;52.180;4.462;2022-12-11T14:30:20;49.58;;;31.52;;
48629;SDS011;34426;52.180;4.462;2022-12-11T14:32:48;47.42;;;32.05;;
48629;SDS011;34426;52.180;4.462;2022-12-11T14:35:22;45.80;;;30.17;;
48629;SDS011;34426;52.180;4.462;2022-12-11T14:37:54;47.20;;;31.58;;
48629;SDS011;34426;52.180;4.462;2022-12-11T14:40:23;45.13;;;30.13;;
48629;SDS011;34426;52.180;4.462;2022-12-11T14:42:53;42.90;;;29.00;;
48629;SDS011;34426;52.180;4.462;2022-12-11T14:45:25;48.28;;;30.25;;